Time;durP1;ratioP1;P1;durP2;ratioP2;P2;SDS_P1;SDS_P2;PMS_P1;PMS_P2;Temp;Humidity;BMP_temperature;BMP_pressure;BME280_temperature;BME280_humidity;BME280_pressure;Samples;Min_cycle;Max_cycle;Signal;HPM_P1;HPM_P2
2022/06/29 00:02:10;;;;;;;6.07;5.35;;;15.40;99.90;;;;;;5030422;28;20106;-95
2022/06/29 00:04:35;;;;;;;6.53;4.70;;;15.40;99.90;;;;;;5019871;28;20030;-86
2022/06/29 00:07:01;;;;;;;5.90;5.22;;;15.30;99.90;;;;;;5001626;28;20054;-85
2022/06/29 00:09:27;;;;;;;6.93;5.18;;;15.30;99.90;;;;;;5012773;28;20132;-88
2022/06/29 00:11:53;;;;;;;8.05;5.22;;;15.30;99.90;;;;;;5012354;28;20073;-85
2022/06/29 00:14:18;;;;;;;6.03;5.00;;;15.20;99.90;;;;;;4995164;28;20081;-87
2022/06/29 00:16:44;;;;;;;8.35;5.28;;;15.20;99.90;;;;;;4995362;28;20445;-87
2022/06/29 00:19:09;;;;;;;6.03;5.25;;;15.20;99.90;;;;;;4995316;28;20409;-88
2022/06/29 00:21:35;;;;;;;6.85;5.47;;;15.10;99.90;;;;;;5011207;28;20474;-87
2022/06/29 00:24:01;;;;;;;6.50;5.90;;;15.10;99.90;;;;;;5011440;28;20046;-87
2022/06/29 00:26:27;;;;;;;6.97;5.10;;;15.10;99.90;;;;;;5010887;28;20495;-87
2022/06/29 00:28:52;;;;;;;6.10;5.50;;;15.20;99.90;;;;;;4995316;28;20058;-86
2022/06/29 00:31:18;;;;;;;7.25;5.53;;;15.20;99.90;;;;;;4994775;28;20046;-88
2022/06/29 00:33:44;;;;;;;7.50;5.40;;;15.10;99.90;;;;;;5011581;28;20482;-88
2022/06/29 00:36:10;;;;;;;6.75;6.05;;;15.10;99.90;;;;;;5016049;28;20123;-87
2022/06/29 00:38:35;;;;;;;6.32;5.72;;;15.10;99.90;;;;;;4998058;28;20042;-86
2022/06/29 00:41:01;;;;;;;8.55;5.70;;;15.10;99.90;;;;;;5012330;28;20049;-85
2022/06/29 00:43:27;;;;;;;6.85;6.18;;;15.00;99.90;;;;;;4996536;28;20046;-86
2022/06/29 00:45:52;;;;;;;10.60;6.15;;;15.00;99.90;;;;;;5012787;28;20087;-86
2022/06/29 00:48:18;;;;;;;8.85;6.72;;;15.00;99.90;;;;;;4997975;28;20046;-87
2022/06/29 00:50:44;;;;;;;6.60;5.78;;;15.00;99.90;;;;;;5035212;28;20038;-88
2022/06/29 00:53:10;;;;;;;9.70;6.43;;;14.90;99.90;;;;;;5031297;28;20050;-87
2022/06/29 00:55:37;;;;;;;7.35;6.22;;;14.90;99.90;;;;;;5014290;28;20336;-85
2022/06/29 00:58:05;;;;;;;7.40;6.68;;;14.80;99.90;;;;;;5015010;28;20080;-88
2022/06/29 01:00:34;;;;;;;7.43;6.82;;;14.80;99.90;;;;;;4984933;28;20034;-87
2022/06/29 01:03:00;;;;;;;8.13;7.30;;;14.70;99.90;;;;;;5017964;28;20038;-87
2022/06/29 01:05:26;;;;;;;8.95;7.47;;;14.70;99.90;;;;;;4980982;28;20046;-86
2022/06/29 01:07:52;;;;;;;10.65;7.80;;;14.70;99.90;;;;;;4995379;28;20136;-86
2022/06/29 01:10:19;;;;;;;8.85;7.95;;;14.60;99.90;;;;;;5012129;28;20426;-92
2022/06/29 01:12:48;;;;;;;12.85;9.55;;;14.60;99.90;;;;;;5015509;28;20521;-86
2022/06/29 01:15:13;;;;;;;10.50;7.60;;;14.60;99.90;;;;;;5015965;28;20050;-88
2022/06/29 01:17:39;;;;;;;11.77;8.18;;;14.60;99.90;;;;;;4999890;28;20112;-86
2022/06/29 01:20:05;;;;;;;9.38;7.85;;;14.60;99.90;;;;;;4999504;28;20050;-87
2022/06/29 01:22:31;;;;;;;12.07;9.30;;;14.60;99.90;;;;;;4999612;28;20045;-86
2022/06/29 01:24:57;;;;;;;9.57;8.52;;;14.60;99.90;;;;;;5019889;28;20044;-87
2022/06/29 01:27:24;;;;;;;10.07;8.63;;;14.60;99.90;;;;;;5035957;28;20037;-93
2022/06/29 01:29:50;;;;;;;9.38;7.55;;;14.50;99.90;;;;;;5040281;28;20110;-90
2022/06/29 01:32:16;;;;;;;10.35;8.15;;;14.60;99.90;;;;;;5013498;28;20046;-86
2022/06/29 01:34:42;;;;;;;8.82;8.00;;;14.50;99.90;;;;;;4994318;28;20079;-86
2022/06/29 01:37:08;;;;;;;9.48;8.45;;;14.60;99.90;;;;;;5035184;28;20056;-86
2022/06/29 01:39:33;;;;;;;10.40;8.30;;;14.50;99.90;;;;;;5031584;28;20041;-87
2022/06/29 01:41:59;;;;;;;9.40;7.88;;;14.50;99.90;;;;;;5019647;28;20054;-88
2022/06/29 01:44:25;;;;;;;10.50;9.20;;;14.50;99.90;;;;;;4983077;28;20068;-86
2022/06/29 01:46:51;;;;;;;12.10;8.82;;;14.50;99.90;;;;;;4998945;28;20177;-88
2022/06/29 01:49:16;;;;;;;11.40;9.55;;;14.40;99.90;;;;;;4982996;28;20058;-86
2022/06/29 01:51:42;;;;;;;12.25;9.35;;;14.40;99.90;;;;;;4981785;28;20474;-87
2022/06/29 01:54:08;;;;;;;12.60;10.93;;;14.40;99.90;;;;;;4982290;28;20041;-86
2022/06/29 01:56:34;;;;;;;11.45;9.98;;;14.30;99.90;;;;;;5019325;28;20052;-86
2022/06/29 01:58:59;;;;;;;10.05;9.05;;;14.30;99.90;;;;;;5004216;28;20050;-86
2022/06/29 02:01:25;;;;;;;11.30;9.98;;;14.30;99.90;;;;;;4981789;28;20089;-87
2022/06/29 02:03:51;;;;;;;13.23;10.50;;;14.30;99.90;;;;;;5000675;28;20046;-88
2022/06/29 02:06:20;;;;;;;11.60;10.43;;;14.30;99.90;;;;;;5000884;28;20454;-86
2022/06/29 02:08:47;;;;;;;11.60;10.50;;;14.30;99.90;;;;;;4997489;28;20089;-88
2022/06/29 02:11:13;;;;;;;12.38;9.93;;;14.30;99.90;;;;;;5014811;28;20085;-86
2022/06/29 02:13:39;;;;;;;11.35;10.25;;;14.30;99.90;;;;;;5014732;28;20485;-85
2022/06/29 02:16:04;;;;;;;12.07;10.85;;;14.30;99.90;;;;;;5015003;28;20062;-86
2022/06/29 02:18:30;;;;;;;12.32;10.18;;;14.30;99.90;;;;;;4980670;28;20533;-89
2022/06/29 02:20:56;;;;;;;11.75;10.55;;;14.40;99.90;;;;;;5014614;28;20100;-87
2022/06/29 02:23:21;;;;;;;11.80;10.55;;;14.40;99.90;;;;;;4996194;28;20153;-86
2022/06/29 02:25:48;;;;;;;11.40;10.30;;;14.50;99.90;;;;;;4996832;28;20073;-86
2022/06/29 02:28:14;;;;;;;11.30;10.20;;;14.50;99.90;;;;;;5013468;28;20038;-86
2022/06/29 02:36:07;;;;;;;11.07;10.02;;;14.50;99.90;;;;;;4999354;28;20386;-87
2022/06/29 02:38:33;;;;;;;11.48;9.48;;;14.50;99.90;;;;;;4996140;28;20112;-86
2022/06/29 02:40:59;;;;;;;10.82;9.77;;;14.50;99.90;;;;;;4996738;28;20046;-85
2022/06/29 02:43:25;;;;;;;10.80;9.70;;;14.40;99.90;;;;;;4996726;28;20060;-86
2022/06/29 02:45:51;;;;;;;11.35;9.98;;;14.50;99.90;;;;;;5012099;28;20072;-88
2022/06/29 02:48:17;;;;;;;11.80;10.70;;;14.50;99.90;;;;;;5001973;28;20050;-87
2022/06/29 02:50:42;;;;;;;14.70;11.35;;;14.50;99.90;;;;;;5027489;28;20475;-87
2022/06/29 02:53:08;;;;;;;13.07;11.73;;;14.50;99.90;;;;;;5016436;28;20109;-92
2022/06/29 02:55:34;;;;;;;12.65;11.35;;;14.50;99.90;;;;;;5036658;28;20046;-93
2022/06/29 02:57:59;;;;;;;13.98;11.98;;;14.50;99.90;;;;;;5017238;28;20402;-86
2022/06/29 03:00:25;;;;;;;12.48;11.25;;;14.50;99.90;;;;;;4996682;28;20563;-87
2022/06/29 03:02:50;;;;;;;12.77;11.43;;;14.50;99.90;;;;;;5012323;28;20136;-85
2022/06/29 03:05:16;;;;;;;11.27;10.15;;;14.40;99.90;;;;;;4996167;28;20042;-86
2022/06/29 03:07:42;;;;;;;12.95;10.82;;;14.50;99.90;;;;;;5011994;28;20042;-87
2022/06/29 03:10:08;;;;;;;12.18;11.15;;;14.40;99.90;;;;;;4996286;28;20050;-86
2022/06/29 03:12:34;;;;;;;12.43;11.13;;;14.40;99.90;;;;;;4979782;28;20081;-86
2022/06/29 03:14:59;;;;;;;12.65;10.30;;;14.40;99.90;;;;;;5013603;28;20189;-86
2022/06/29 03:17:25;;;;;;;12.32;11.13;;;14.40;99.90;;;;;;5013619;28;20498;-87
2022/06/29 03:19:50;;;;;;;12.05;10.95;;;14.40;99.90;;;;;;5015443;28;20057;-86
2022/06/29 03:22:16;;;;;;;12.20;11.07;;;14.40;99.90;;;;;;5012936;28;20164;-86
2022/06/29 03:24:42;;;;;;;12.45;11.15;;;14.40;99.90;;;;;;5013030;28;20053;-87
2022/06/29 03:27:07;;;;;;;12.07;10.82;;;14.40;99.90;;;;;;5012502;28;20057;-87
2022/06/29 03:29:33;;;;;;;12.25;11.15;;;14.40;99.90;;;;;;5012224;28;20052;-85
2022/06/29 03:31:59;;;;;;;12.60;11.30;;;14.40;99.90;;;;;;5012069;28;20103;-85
2022/06/29 03:34:24;;;;;;;13.10;11.65;;;14.50;99.90;;;;;;4995903;28;20049;-87
2022/06/29 03:36:50;;;;;;;12.32;11.00;;;14.50;99.90;;;;;;5011504;28;20082;-87
2022/06/29 03:39:16;;;;;;;12.00;10.80;;;14.50;99.90;;;;;;5012980;28;20046;-87
2022/06/29 03:41:47;;;;;;;12.50;11.23;;;14.40;99.90;;;;;;4996540;28;20123;-87
2022/06/29 03:44:12;;;;;;;12.75;11.50;;;14.40;99.90;;;;;;5012727;28;20065;-87
2022/06/29 03:46:38;;;;;;;13.57;11.48;;;14.50;99.90;;;;;;4995493;28;20050;-88
2022/06/29 03:49:04;;;;;;;14.25;11.52;;;14.60;99.90;;;;;;4979695;28;20402;-86
2022/06/29 03:51:30;;;;;;;13.30;12.15;;;14.50;99.90;;;;;;5012802;28;20046;-86
2022/06/29 03:53:56;;;;;;;13.75;12.43;;;14.50;99.90;;;;;;4995002;28;20060;-87
2022/06/29 03:56:21;;;;;;;13.48;12.05;;;14.50;99.90;;;;;;4979555;28;20097;-88
2022/06/29 03:58:47;;;;;;;12.52;11.27;;;14.50;99.90;;;;;;5012748;28;20052;-86
2022/06/29 04:01:12;;;;;;;13.82;11.05;;;14.50;99.90;;;;;;4995091;28;20153;-87
2022/06/29 04:03:38;;;;;;;13.43;11.68;;;14.50;99.90;;;;;;4995464;28;20136;-92
2022/06/29 04:06:04;;;;;;;12.70;11.13;;;14.40;99.90;;;;;;4995617;28;20096;-86
2022/06/29 04:08:29;;;;;;;13.13;11.63;;;14.40;99.90;;;;;;5012438;28;20053;-87
2022/06/29 04:10:55;;;;;;;13.07;11.90;;;14.40;99.90;;;;;;4994991;28;20061;-87
2022/06/29 04:13:22;;;;;;;12.98;11.43;;;14.40;99.90;;;;;;5023341;28;20033;-88
2022/06/29 04:15:49;;;;;;;15.27;11.82;;;14.40;99.90;;;;;;4976973;28;20139;-87
2022/06/29 04:18:14;;;;;;;12.10;10.77;;;13.70;99.90;;;;;;5003433;28;20050;-91
2022/06/29 04:23:24;;;;;;;;;;;14.40;99.90;;;;;;4982194;28;20061;-88
2022/06/29 04:25:50;;;;;;;13.85;11.32;;;14.50;99.90;;;;;;4994717;28;19944;-88
2022/06/29 04:28:15;;;;;;;11.93;10.88;;;14.50;99.90;;;;;;4994791;28;20050;-88
2022/06/29 04:30:41;;;;;;;14.35;12.98;;;14.40;99.90;;;;;;4995311;28;20053;-91
2022/06/29 04:33:08;;;;;;;12.68;11.57;;;14.50;99.90;;;;;;4995212;28;20050;-87
2022/06/29 04:35:34;;;;;;;12.23;11.02;;;14.60;99.90;;;;;;4996050;28;20058;-86
2022/06/29 04:38:00;;;;;;;13.15;11.80;;;14.60;99.90;;;;;;4979152;28;20053;-89
2022/06/29 04:40:26;;;;;;;12.45;11.20;;;14.60;99.90;;;;;;4995487;28;20061;-86
2022/06/29 04:42:51;;;;;;;13.60;11.55;;;14.70;99.90;;;;;;4962477;28;20050;-87
2022/06/29 04:48:01;;;;;;;13.32;11.80;;;14.80;99.90;;;;;;5014860;28;20149;-86
2022/06/29 04:50:28;;;;;;;12.75;11.30;;;14.80;99.90;;;;;;5014856;28;20552;-87
2022/06/29 04:52:53;;;;;;;13.13;11.60;;;14.90;99.90;;;;;;5015794;28;20084;-86
2022/06/29 04:55:19;;;;;;;12.80;11.60;;;14.90;99.90;;;;;;5016269;28;20089;-87
2022/06/29 04:57:45;;;;;;;11.98;10.80;;;14.90;99.90;;;;;;4998331;28;20042;-90
2022/06/29 05:07:35;;;;;;;13.13;11.82;;;15.10;99.90;;;;;;5252830;23;20567;-87
2022/06/29 05:10:00;;;;;;;11.80;10.70;;;15.00;99.90;;;;;;5000965;28;20054;-85
2022/06/29 05:12:26;;;;;;;11.95;10.80;;;15.20;99.90;;;;;;5007482;28;20045;-87
2022/06/29 05:14:52;;;;;;;12.70;11.30;;;15.30;99.90;;;;;;4994763;28;20077;-87
2022/06/29 05:17:17;;;;;;;10.98;9.73;;;15.40;99.90;;;;;;5039214;28;20053;-88
2022/06/29 05:19:43;;;;;;;15.10;10.73;;;15.40;99.90;;;;;;5004543;28;20045;-86
2022/06/29 05:22:08;;;;;;;11.43;10.23;;;15.60;99.90;;;;;;5020852;28;20057;-87
2022/06/29 05:24:34;;;;;;;12.95;10.02;;;15.80;99.90;;;;;;5021069;28;20087;-89
2022/06/29 05:27:00;;;;;;;12.43;10.02;;;15.90;99.90;;;;;;5021136;28;20049;-88
2022/06/29 05:29:25;;;;;;;10.50;9.50;;;15.90;99.90;;;;;;5003707;28;20049;-87
2022/06/29 05:31:52;;;;;;;12.00;9.95;;;16.00;99.90;;;;;;5003935;28;20045;-87
2022/06/29 05:34:18;;;;;;;12.20;10.05;;;16.30;99.90;;;;;;4988257;28;20088;-86
2022/06/29 05:36:43;;;;;;;15.27;10.40;;;16.50;99.90;;;;;;4990081;28;20091;-90
2022/06/29 05:39:09;;;;;;;9.55;8.65;;;17.20;99.90;;;;;;4989134;28;20053;-88
2022/06/29 05:41:35;;;;;;;8.90;8.10;;;17.90;99.90;;;;;;5021899;28;20105;-91
2022/06/29 05:44:02;;;;;;;8.20;7.50;;;18.80;99.90;;;;;;5060530;28;20049;-88
2022/06/29 05:46:28;;;;;;;9.63;7.43;;;19.50;99.90;;;;;;5025672;28;20076;-85
2022/06/29 05:48:54;;;;;;;8.38;6.60;;;20.30;99.90;;;;;;5019796;28;20466;-88
2022/06/29 05:51:19;;;;;;;9.57;6.03;;;21.10;99.90;;;;;;5037121;28;20465;-88
2022/06/29 05:53:45;;;;;;;10.65;5.63;;;21.60;99.90;;;;;;5003746;28;20525;-88
2022/06/29 05:56:11;;;;;;;7.60;6.13;;;22.10;99.90;;;;;;5019602;28;20084;-87
2022/06/29 05:58:37;;;;;;;7.07;5.55;;;22.20;99.90;;;;;;5001550;28;20053;-87
2022/06/29 06:01:06;;;;;;;6.72;5.30;;;22.60;99.90;;;;;;4988841;28;20504;-89
2022/06/29 06:03:32;;;;;;;6.70;5.45;;;22.90;99.90;;;;;;5020851;28;20064;-88
2022/06/29 06:05:58;;;;;;;6.75;5.18;;;23.40;99.90;;;;;;5018867;28;20038;-86
2022/06/29 06:08:24;;;;;;;5.97;5.38;;;23.20;99.90;;;;;;5003033;28;20140;-88
2022/06/29 06:10:49;;;;;;;5.85;5.10;;;23.70;99.90;;;;;;5008299;28;20053;-88
2022/06/29 06:13:15;;;;;;;7.68;5.38;;;24.10;99.90;;;;;;5019858;28;20478;-89
2022/06/29 06:15:41;;;;;;;5.30;4.80;;;24.70;99.90;;;;;;5003113;28;20077;-85
2022/06/29 06:18:06;;;;;;;6.10;4.90;;;25.00;99.90;;;;;;4985784;28;20107;-88
2022/06/29 06:20:32;;;;;;;5.70;4.30;;;25.10;99.90;;;;;;5018187;28;20096;-87
2022/06/29 06:22:58;;;;;;;4.13;3.72;;;25.70;99.90;;;;;;5002405;28;20058;-88
2022/06/29 06:25:24;;;;;;;5.53;4.45;;;25.70;99.90;;;;;;5002861;28;20045;-89
2022/06/29 06:27:49;;;;;;;5.18;4.20;;;25.20;99.90;;;;;;5003060;28;20132;-88
2022/06/29 06:30:15;;;;;;;5.20;4.35;;;25.60;99.90;;;;;;5019313;28;20119;-86
2022/06/29 06:32:41;;;;;;;5.60;4.60;;;25.20;99.90;;;;;;5001609;28;20048;-88
2022/06/29 06:35:07;;;;;;;5.32;4.40;;;25.70;99.90;;;;;;5001749;28;20179;-87
2022/06/29 06:37:39;;;;;;;5.68;4.60;;;25.80;99.90;;;;;;5018144;28;20440;-87
2022/06/29 06:42:49;;;;;;;4.63;4.00;;;25.40;99.90;;;;;;5004478;28;20053;-89
2022/06/29 06:45:15;;;;;;;4.65;3.80;;;26.10;99.90;;;;;;5001586;28;20045;-86
2022/06/29 06:47:41;;;;;;;3.92;3.50;;;26.80;99.90;;;;;;5017920;28;20045;-86
2022/06/29 06:50:08;;;;;;;7.90;3.90;;;26.60;99.90;;;;;;4985992;28;20362;-88
2022/06/29 06:52:34;;;;;;;4.47;3.38;;;26.50;99.90;;;;;;5018344;28;20052;-86
2022/06/29 06:55:00;;;;;;;3.50;3.22;;;26.60;99.90;;;;;;5018043;28;20041;-88
2022/06/29 06:57:25;;;;;;;4.40;3.55;;;26.70;99.90;;;;;;5000851;28;20059;-89
2022/06/29 06:59:53;;;;;;;3.45;3.20;;;25.80;99.90;;;;;;5035598;28;20084;-88
2022/06/29 07:02:20;;;;;;;4.18;3.30;;;27.10;99.90;;;;;;5035316;28;20041;-88
2022/06/29 07:04:46;;;;;;;4.18;3.30;;;27.20;99.90;;;;;;5057001;28;20041;-89
2022/06/29 07:07:13;;;;;;;3.20;2.90;;;27.90;99.90;;;;;;5041390;28;20057;-90
2022/06/29 07:09:39;;;;;;;3.30;2.67;;;28.10;99.90;;;;;;5015497;28;20057;-88
2022/06/29 07:12:05;;;;;;;4.03;2.78;;;28.00;99.80;;;;;;5017700;28;20057;-89
2022/06/29 07:14:32;;;;;;;4.13;2.65;;;27.90;99.90;;;;;;5034832;28;20042;-89
2022/06/29 07:16:57;;;;;;;3.42;2.33;;;27.70;99.90;;;;;;5001567;28;20045;-91
2022/06/29 07:19:23;;;;;;;5.20;2.85;;;28.60;99.20;;;;;;5037672;28;20048;-93
2022/06/29 07:21:49;;;;;;;5.10;2.30;;;28.30;98.90;;;;;;5001415;28;20103;-88
2022/06/29 07:24:14;;;;;;;2.70;2.30;;;28.30;99.10;;;;;;5003185;28;20053;-89
2022/06/29 07:26:40;;;;;;;4.65;2.30;;;28.80;98.60;;;;;;5001035;28;20045;-87
2022/06/29 07:29:06;;;;;;;3.72;2.33;;;28.60;98.50;;;;;;4984792;28;20486;-88
2022/06/29 07:31:31;;;;;;;3.00;2.28;;;28.60;98.70;;;;;;5016755;28;20056;-89
2022/06/29 07:33:57;;;;;;;3.13;2.40;;;28.80;99.60;;;;;;5016751;28;20053;-90
2022/06/29 07:36:23;;;;;;;4.60;2.08;;;29.00;99.80;;;;;;5017153;28;20080;-88
2022/06/29 07:38:48;;;;;;;2.38;2.00;;;28.40;99.30;;;;;;5035310;28;20049;-90
2022/06/29 07:41:14;;;;;;;3.70;2.10;;;28.70;99.50;;;;;;4968568;28;20132;-87
2022/06/29 07:43:40;;;;;;;4.10;2.75;;;29.20;98.40;;;;;;5015753;28;20061;-88
2022/06/29 07:46:06;;;;;;;7.32;2.38;;;29.30;99.90;;;;;;5016915;28;20076;-88
2022/06/29 07:48:31;;;;;;;2.95;1.90;;;29.60;98.00;;;;;;5016548;28;20085;-90
2022/06/29 07:50:57;;;;;;;4.50;2.30;;;28.60;99.40;;;;;;4999828;28;20045;-88
2022/06/29 07:53:22;;;;;;;3.50;2.20;;;28.90;98.30;;;;;;5016772;28;20057;-88
2022/06/29 07:55:48;;;;;;;3.58;2.00;;;29.20;98.70;;;;;;5001187;28;20052;-89
2022/06/29 07:58:15;;;;;;;6.82;2.30;;;28.60;99.20;;;;;;5016816;28;20050;-89
2022/06/29 08:00:41;;;;;;;5.45;1.92;;;29.20;98.90;;;;;;5016908;28;20049;-89
2022/06/29 08:03:07;;;;;;;3.55;2.08;;;29.20;99.50;;;;;;4999989;28;20057;-89
2022/06/29 08:05:34;;;;;;;2.72;2.10;;;29.90;98.70;;;;;;4999940;28;20041;-90
2022/06/29 08:07:59;;;;;;;6.15;2.00;;;30.20;98.60;;;;;;5000149;28;20060;-90
2022/06/29 08:10:25;;;;;;;2.63;2.10;;;30.20;97.60;;;;;;4984022;28;20405;-86
2022/06/29 08:12:51;;;;;;;5.43;2.22;;;30.30;97.20;;;;;;5033570;28;20041;-88
2022/06/29 08:15:17;;;;;;;4.00;2.00;;;30.10;97.50;;;;;;4984155;28;20056;-88
2022/06/29 08:17:44;;;;;;;3.45;1.85;;;30.00;98.10;;;;;;4984077;28;20073;-89
2022/06/29 08:20:10;;;;;;;2.20;1.90;;;30.20;98.10;;;;;;4999987;28;20037;-88
2022/06/29 08:22:36;;;;;;;3.25;2.10;;;29.60;98.90;;;;;;5003543;28;20057;-89
2022/06/29 08:25:02;;;;;;;2.90;2.28;;;29.10;97.60;;;;;;4996556;28;20041;-88
2022/06/29 08:27:28;;;;;;;2.70;1.90;;;28.80;98.20;;;;;;5007156;28;20045;-89
2022/06/29 08:29:54;;;;;;;2.38;2.10;;;28.00;99.20;;;;;;5038275;28;20045;-90
2022/06/29 08:32:20;;;;;;;2.22;1.90;;;28.00;98.60;;;;;;5043867;28;20105;-88
2022/06/29 08:34:46;;;;;;;3.60;2.10;;;27.70;98.50;;;;;;5059176;28;20081;-87
2022/06/29 08:37:12;;;;;;;2.55;1.83;;;27.50;99.00;;;;;;5020338;28;20053;-86
2022/06/29 08:39:38;;;;;;;3.03;1.98;;;27.20;98.80;;;;;;5020799;28;20097;-86
2022/06/29 08:42:04;;;;;;;4.85;1.95;;;27.40;99.50;;;;;;5009592;28;20076;-94
2022/06/29 08:44:34;;;;;;;4.88;2.25;;;28.40;99.20;;;;;;5039638;28;20045;-89
2022/06/29 08:47:01;;;;;;;2.55;1.65;;;29.10;98.50;;;;;;5037309;28;20080;-87
2022/06/29 08:49:27;;;;;;;3.17;2.03;;;29.50;98.60;;;;;;5019694;28;20401;-88
2022/06/29 08:51:53;;;;;;;4.43;1.83;;;29.60;97.30;;;;;;5035815;28;20049;-87
2022/06/29 08:54:19;;;;;;;3.80;1.70;;;29.80;96.20;;;;;;4992139;28;20060;-89
2022/06/29 08:56:45;;;;;;;3.47;1.80;;;30.10;96.50;;;;;;5021439;28;20132;-87
2022/06/29 08:59:10;;;;;;;3.22;2.38;;;30.20;96.60;;;;;;4988557;28;20041;-85
2022/06/29 09:01:36;;;;;;;5.05;1.90;;;30.60;96.10;;;;;;5004487;28;20091;-87
2022/06/29 09:04:02;;;;;;;2.75;2.10;;;30.40;96.20;;;;;;5003640;28;20052;-87
2022/06/29 09:06:27;;;;;;;2.63;1.60;;;30.30;95.50;;;;;;4989413;28;20064;-90
2022/06/29 09:08:53;;;;;;;3.38;2.08;;;30.50;96.00;;;;;;5020453;28;20041;-88
2022/06/29 09:11:23;;;;;;;3.50;2.15;;;30.50;95.80;;;;;;5003695;28;20081;-88
2022/06/29 09:14:11;;;;;;;2.28;1.73;;;30.50;96.60;;;;;;5020642;28;20378;-87
2022/06/29 09:16:49;;;;;;;1.70;1.60;;;31.20;95.50;;;;;;4990509;28;20045;-86
2022/06/29 09:19:18;;;;;;;3.45;2.65;;;31.40;94.90;;;;;;5038072;28;20548;-86
2022/06/29 09:21:54;;;;;;;3.63;1.92;;;31.00;95.10;;;;;;4972129;28;20053;-87
2022/06/29 09:24:22;;;;;;;1.70;1.60;;;30.90;95.00;;;;;;4972917;28;20061;-88
2022/06/29 09:26:52;;;;;;;3.65;1.73;;;30.70;94.90;;;;;;5021273;28;20062;-86
2022/06/29 09:29:20;;;;;;;3.63;1.80;;;31.00;95.20;;;;;;4987260;28;20107;-88
2022/06/29 09:32:01;;;;;;;2.88;1.92;;;30.40;94.90;;;;;;4987169;28;20055;-88
2022/06/29 09:34:27;;;;;;;4.50;2.50;;;30.60;95.30;;;;;;5004285;28;20046;-88
2022/06/29 09:36:56;;;;;;;3.88;2.00;;;30.00;95.20;;;;;;4987603;28;20081;-87
2022/06/29 09:39:43;;;;;;;2.85;1.83;;;29.90;95.30;;;;;;4986758;28;20050;-89
2022/06/29 09:42:16;;;;;;;3.63;1.80;;;29.20;95.70;;;;;;5019319;28;20057;-88
2022/06/29 09:44:42;;;;;;;2.45;1.90;;;30.20;95.50;;;;;;5002686;28;20132;-89
2022/06/29 09:47:11;;;;;;;2.08;1.90;;;30.40;96.40;;;;;;5002558;28;20556;-88
2022/06/29 09:49:37;;;;;;;2.58;1.80;;;31.00;95.50;;;;;;4987042;28;20107;-87
2022/06/29 09:52:04;;;;;;;3.47;2.00;;;31.70;95.00;;;;;;5002549;28;20129;-86
2022/06/29 09:54:45;;;;;;;2.42;1.90;;;31.40;94.90;;;;;;5011304;28;20142;-87
2022/06/29 09:57:19;;;;;;;2.67;2.13;;;31.00;95.10;;;;;;5015762;28;20033;-91
2022/06/29 10:02:45;;;;;;;3.08;2.15;;;31.30;95.80;;;;;;5010560;28;20049;-86
2022/06/29 10:05:15;;;;;;;3.22;1.95;;;31.10;95.20;;;;;;4973852;28;20055;-88
2022/06/29 10:07:45;;;;;;;5.43;2.17;;;31.20;96.00;;;;;;4987429;28;20058;-86
2022/06/29 10:10:15;;;;;;;2.10;1.90;;;31.60;94.80;;;;;;5002922;28;20062;-87
2022/06/29 10:16:30;;;;;;;2.42;1.90;;;30.80;94.90;;;;;;4993382;28;20053;-86
2022/06/29 10:19:02;;;;;;;2.95;1.63;;;30.40;95.00;;;;;;4971504;28;20397;-87
2022/06/29 10:21:29;;;;;;;3.45;2.33;;;30.30;95.00;;;;;;5002797;28;20053;-87
2022/06/29 10:23:56;;;;;;;3.10;1.83;;;29.70;95.30;;;;;;4986601;28;20122;-87
2022/06/29 10:26:30;;;;;;;3.30;1.95;;;30.30;95.40;;;;;;5002422;28;20053;-86
2022/06/29 10:28:56;;;;;;;3.63;2.20;;;29.70;95.60;;;;;;5019223;28;20056;-86
2022/06/29 10:31:50;;;;;;;2.10;1.90;;;29.50;95.60;;;;;;5002983;28;20057;-86
2022/06/29 10:37:12;;;;;;;8.27;2.28;;;28.80;95.30;;;;;;5019196;28;20058;-86
2022/06/29 10:39:50;;;;;;;3.55;1.80;;;28.80;96.10;;;;;;5017551;28;20129;-86
2022/06/29 10:45:19;;;;;;;3.95;1.80;;;28.60;96.10;;;;;;5022749;28;20061;-87
2022/06/29 10:47:58;;;;;;;2.42;2.10;;;28.50;96.50;;;;;;5035618;28;20129;-87
2022/06/29 10:50:30;;;;;;;2.42;2.05;;;28.70;96.40;;;;;;5018263;28;20064;-87
2022/06/29 10:53:08;;;;;;;2.10;1.90;;;28.40;95.80;;;;;;4986218;28;20193;-87
2022/06/29 10:55:37;;;;;;;2.78;1.80;;;28.30;96.10;;;;;;5001657;28;20489;-87
2022/06/29 10:58:03;;;;;;;3.88;2.13;;;28.50;96.00;;;;;;5001631;28;20048;-86
2022/06/29 11:00:42;;;;;;;2.05;1.83;;;28.70;95.30;;;;;;5018423;28;20149;-88
2022/06/29 11:03:09;;;;;;;;;;;28.70;95.70;;;;;;5001469;28;20060;-86
2022/06/29 11:05:34;;;;;;;4.75;2.40;;;29.20;95.90;;;;;;5001536;28;19927;-87
2022/06/29 11:13:29;;;;;;;2.85;2.10;;;29.80;95.50;;;;;;5003883;28;20057;-88
2022/06/29 11:15:56;;;;;;;2.65;2.08;;;29.50;96.40;;;;;;4984944;28;20049;-88
2022/06/29 11:18:27;;;;;;;2.35;2.08;;;29.40;96.20;;;;;;5000957;28;20049;-87
2022/06/29 11:20:53;;;;;;;3.75;2.15;;;29.40;96.10;;;;;;5023231;28;20049;-86
2022/06/29 11:23:27;;;;;;;2.00;1.90;;;29.50;95.90;;;;;;5023129;28;20115;-87
2022/06/29 11:25:54;;;;;;;2.03;1.80;;;29.40;97.40;;;;;;5008541;28;20037;-87
2022/06/29 11:28:25;;;;;;;3.25;1.95;;;29.50;95.60;;;;;;5023948;28;20049;-85
2022/06/29 11:31:00;;;;;;;2.17;2.00;;;29.80;95.40;;;;;;5001743;28;20389;-86
2022/06/29 11:33:30;;;;;;;3.95;1.80;;;29.50;95.10;;;;;;5001058;28;20049;-87
2022/06/29 11:35:56;;;;;;;3.67;2.00;;;29.50;94.70;;;;;;4984732;28;20061;-88
2022/06/29 11:38:26;;;;;;;2.97;2.13;;;29.30;94.70;;;;;;5016815;28;20071;-85
2022/06/29 11:40:54;;;;;;;1.80;1.70;;;29.10;94.60;;;;;;5002758;28;20497;-87
2022/06/29 11:43:20;;;;;;;2.38;2.17;;;29.30;95.20;;;;;;5003613;28;20064;-88
2022/06/29 11:45:51;;;;;;;2.55;2.15;;;29.30;94.70;;;;;;5001004;28;20060;-87
2022/06/29 11:48:20;;;;;;;3.05;2.63;;;29.10;94.60;;;;;;5000695;28;20132;-87
2022/06/29 11:51:00;;;;;;;3.00;2.70;;;28.80;95.20;;;;;;5000288;28;20053;-87
2022/06/29 11:53:45;;;;;;;4.07;2.67;;;28.60;95.40;;;;;;5000678;28;20061;-88
2022/06/29 11:56:12;;;;;;;3.08;2.88;;;28.70;95.60;;;;;;4984192;28;20128;-87
2022/06/29 11:58:39;;;;;;;4.95;2.40;;;28.80;96.40;;;;;;5000288;28;20140;-86
2022/06/29 12:01:17;;;;;;;3.00;2.70;;;28.80;96.80;;;;;;4984307;28;20058;-86
2022/06/29 12:03:53;;;;;;;3.00;2.58;;;28.90;95.70;;;;;;4984559;28;20041;-86
2022/06/29 12:06:19;;;;;;;4.60;2.88;;;29.30;97.30;;;;;;4984678;28;20057;-86
2022/06/29 12:08:47;;;;;;;2.95;2.70;;;29.30;96.80;;;;;;5016630;28;20093;-86
2022/06/29 12:11:13;;;;;;;4.00;2.72;;;29.60;95.60;;;;;;5000353;28;20052;-86
2022/06/29 12:13:38;;;;;;;4.35;3.30;;;29.60;96.20;;;;;;4983757;28;20132;-86
2022/06/29 12:16:04;;;;;;;4.43;3.28;;;29.70;96.60;;;;;;5016485;28;20049;-88
2022/06/29 12:18:30;;;;;;;5.28;3.50;;;29.20;96.20;;;;;;5016953;28;20128;-88
2022/06/29 12:20:56;;;;;;;4.38;3.80;;;28.50;96.30;;;;;;5016407;28;20053;-85
2022/06/29 12:23:21;;;;;;;4.75;3.40;;;28.50;96.60;;;;;;4984193;28;20061;-87
2022/06/29 12:25:47;;;;;;;3.58;3.28;;;28.60;96.90;;;;;;5001077;28;20128;-88
2022/06/29 12:28:13;;;;;;;6.10;3.63;;;28.70;96.90;;;;;;5016544;28;20401;-86
2022/06/29 12:30:38;;;;;;;5.28;3.50;;;28.90;97.10;;;;;;5009702;28;20049;-86
2022/06/29 12:33:09;;;;;;;3.85;3.40;;;29.10;97.00;;;;;;5024494;28;20056;-85
2022/06/29 12:35:35;;;;;;;6.45;3.40;;;29.00;97.00;;;;;;5015256;28;20027;-86
2022/06/29 12:38:01;;;;;;;3.45;3.13;;;29.50;97.40;;;;;;5015135;28;20045;-86
2022/06/29 12:40:28;;;;;;;5.35;3.70;;;29.10;96.80;;;;;;5006459;28;20132;-88
2022/06/29 12:42:54;;;;;;;4.30;3.75;;;29.30;96.90;;;;;;5018686;28;20156;-87
2022/06/29 12:45:20;;;;;;;4.30;3.47;;;29.20;98.30;;;;;;5001726;28;20088;-86
2022/06/29 12:47:46;;;;;;;8.75;3.65;;;29.50;97.90;;;;;;5020717;28;20196;-87
2022/06/29 12:50:12;;;;;;;5.78;3.42;;;29.30;98.30;;;;;;5019985;28;20101;-89
2022/06/29 12:52:42;;;;;;;8.48;4.05;;;28.90;97.80;;;;;;5009543;28;20088;-87
2022/06/29 12:55:08;;;;;;;4.30;3.83;;;29.10;97.90;;;;;;5022663;28;20049;-87
2022/06/29 12:57:35;;;;;;;4.10;3.80;;;28.90;98.80;;;;;;5033974;28;20046;-85
2022/06/29 13:00:01;;;;;;;7.38;4.15;;;29.10;97.30;;;;;;5016650;28;20045;-87
2022/06/29 13:02:27;;;;;;;5.53;3.70;;;29.20;97.30;;;;;;4999923;28;20084;-86
2022/06/29 13:04:52;;;;;;;5.63;4.20;;;29.10;97.80;;;;;;4984354;28;20076;-88
2022/06/29 13:07:18;;;;;;;4.15;3.75;;;28.70;97.80;;;;;;5002830;28;20053;-86
2022/06/29 13:09:43;;;;;;;5.45;4.57;;;28.30;98.30;;;;;;5019608;28;20057;-87
2022/06/29 13:12:09;;;;;;;5.32;3.92;;;28.20;98.60;;;;;;5037418;28;20049;-86
2022/06/29 13:14:35;;;;;;;4.82;3.90;;;28.00;98.80;;;;;;5003968;28;20045;-87
2022/06/29 13:17:06;;;;;;;4.15;3.85;;;28.00;99.00;;;;;;5038223;28;20059;-85
2022/06/29 13:19:32;;;;;;;4.75;4.28;;;28.20;98.80;;;;;;5003559;28;20540;-87